sensor_id;sensor_type;location;lat;lon;timestamp;temperature;humidity
38788;DHT22;24536;45.488;12.238;2022-12-07T00:01:13;8.10;94.70
38788;DHT22;24536;45.488;12.238;2022-12-07T00:03:40;8.00;94.60
38788;DHT22;24536;45.488;12.238;2022-12-07T00:06:08;8.10;94.70
38788;DHT22;24536;45.488;12.238;2022-12-07T00:08:34;8.00;94.60
38788;DHT22;24536;45.488;12.238;2022-12-07T00:11:09;8.00;94.60
38788;DHT22;24536;45.488;12.238;2022-12-07T00:13:35;8.00;94.30
38788;DHT22;24536;45.488;12.238;2022-12-07T00:16:09;8.00;94.50
38788;DHT22;24536;45.488;12.238;2022-12-07T00:21:08;7.90;94.50
38788;DHT22;24536;45.488;12.238;2022-12-07T00:23:34;7.90;94.70
38788;DHT22;24536;45.488;12.238;2022-12-07T00:26:11;7.70;94.50
38788;DHT22;24536;45.488;12.238;2022-12-07T00:28:37;7.30;94.50
38788;DHT22;24536;45.488;12.238;2022-12-07T00:31:08;7.30;95.30
38788;DHT22;24536;45.488;12.238;2022-12-07T00:33:35;7.40;95.20
38788;DHT22;24536;45.488;12.238;2022-12-07T00:36:03;7.40;95.10
38788;DHT22;24536;45.488;12.238;2022-12-07T00:38:31;7.40;95.10
38788;DHT22;24536;45.488;12.238;2022-12-07T00:40:58;7.50;95.30
38788;DHT22;24536;45.488;12.238;2022-12-07T00:43:25;7.50;95.10
38788;DHT22;24536;45.488;12.238;2022-12-07T00:45:51;7.60;94.90
38788;DHT22;24536;45.488;12.238;2022-12-07T00:48:17;7.60;94.90
38788;DHT22;24536;45.488;12.238;2022-12-07T00:53:09;7.60;94.80
38788;DHT22;24536;45.488;12.238;2022-12-07T00:55:35;7.50;94.90
38788;DHT22;24536;45.488;12.238;2022-12-07T00:58:02;7.60;95.00
38788;DHT22;24536;45.488;12.238;2022-12-07T01:00:28;7.60;95.00
38788;DHT22;24536;45.488;12.238;2022-12-07T01:02:54;7.70;94.90
38788;DHT22;24536;45.488;12.238;2022-12-07T01:05:19;7.60;94.50
38788;DHT22;24536;45.488;12.238;2022-12-07T01:07:45;7.60;94.90
38788;DHT22;24536;45.488;12.238;2022-12-07T01:10:12;7.60;94.70
38788;DHT22;24536;45.488;12.238;2022-12-07T01:12:39;7.60;94.80
38788;DHT22;24536;45.488;12.238;2022-12-07T01:15:05;7.60;94.60
38788;DHT22;24536;45.488;12.238;2022-12-07T01:17:31;7.70;94.70
38788;DHT22;24536;45.488;12.238;2022-12-07T01:19:57;7.70;94.80
38788;DHT22;24536;45.488;12.238;2022-12-07T01:22:22;7.70;94.80
38788;DHT22;24536;45.488;12.238;2022-12-07T01:24:48;7.70;94.60
38788;DHT22;24536;45.488;12.238;2022-12-07T01:27:14;7.70;94.70
38788;DHT22;24536;45.488;12.238;2022-12-07T01:29:40;7.70;94.70
38788;DHT22;24536;45.488;12.238;2022-12-07T01:32:06;7.70;94.70
38788;DHT22;24536;45.488;12.238;2022-12-07T01:34:32;7.70;94.60
38788;DHT22;24536;45.488;12.238;2022-12-07T01:36:57;7.80;94.70
38788;DHT22;24536;45.488;12.238;2022-12-07T01:39:24;7.70;94.40
38788;DHT22;24536;45.488;12.238;2022-12-07T01:41:50;7.80;94.60
38788;DHT22;24536;45.488;12.238;2022-12-07T01:44:26;7.80;94.50
38788;DHT22;24536;45.488;12.238;2022-12-07T01:46:59;7.90;94.50
38788;DHT22;24536;45.488;12.238;2022-12-07T01:49:41;7.80;94.30
38788;DHT22;24536;45.488;12.238;2022-12-07T01:52:24;7.80;94.40
38788;DHT22;24536;45.488;12.238;2022-12-07T01:54:54;7.70;94.40
38788;DHT22;24536;45.488;12.238;2022-12-07T01:57:22;7.60;94.50
38788;DHT22;24536;45.488;12.238;2022-12-07T01:59:50;7.70;94.50
38788;DHT22;24536;45.488;12.238;2022-12-07T02:02:29;7.70;94.50
38788;DHT22;24536;45.488;12.238;2022-12-07T02:04:57;7.80;94.50
38788;DHT22;24536;45.488;12.238;2022-12-07T02:07:25;7.80;94.30
38788;DHT22;24536;45.488;12.238;2022-12-07T02:09:52;7.80;94.40
38788;DHT22;24536;45.488;12.238;2022-12-07T02:12:18;7.60;94.10
38788;DHT22;24536;45.488;12.238;2022-12-07T02:14:44;7.50;94.40
38788;DHT22;24536;45.488;12.238;2022-12-07T02:17:32;7.40;94.70
38788;DHT22;24536;45.488;12.238;2022-12-07T02:20:20;7.50;94.60
38788;DHT22;24536;45.488;12.238;2022-12-07T02:28:31;7.60;94.60
38788;DHT22;24536;45.488;12.238;2022-12-07T02:31:03;7.70;94.40
38788;DHT22;24536;45.488;12.238;2022-12-07T02:34:09;7.70;94.20
38788;DHT22;24536;45.488;12.238;2022-12-07T02:36:42;7.70;94.10
38788;DHT22;24536;45.488;12.238;2022-12-07T02:39:20;7.50;94.20
38788;DHT22;24536;45.488;12.238;2022-12-07T02:41:54;7.50;94.40
38788;DHT22;24536;45.488;12.238;2022-12-07T02:44:24;7.60;94.40
38788;DHT22;24536;45.488;12.238;2022-12-07T02:47:05;7.60;94.10
38788;DHT22;24536;45.488;12.238;2022-12-07T02:49:33;7.60;94.20
38788;DHT22;24536;45.488;12.238;2022-12-07T02:52:01;7.50;94.20
38788;DHT22;24536;45.488;12.238;2022-12-07T02:54:26;7.60;94.30
38788;DHT22;24536;45.488;12.238;2022-12-07T03:00:00;7.60;94.10
38788;DHT22;24536;45.488;12.238;2022-12-07T03:05:17;7.50;94.00
38788;DHT22;24536;45.488;12.238;2022-12-07T03:18:40;7.30;94.20
38788;DHT22;24536;45.488;12.238;2022-12-07T03:21:14;7.30;94.10
38788;DHT22;24536;45.488;12.238;2022-12-07T03:23:43;7.30;94.10
38788;DHT22;24536;45.488;12.238;2022-12-07T03:26:12;7.20;94.00
38788;DHT22;24536;45.488;12.238;2022-12-07T03:28:44;7.20;94.00
38788;DHT22;24536;45.488;12.238;2022-12-07T03:31:19;7.20;94.10
38788;DHT22;24536;45.488;12.238;2022-12-07T03:36:43;7.20;93.80
38788;DHT22;24536;45.488;12.238;2022-12-07T03:41:52;7.10;93.80
38788;DHT22;24536;45.488;12.238;2022-12-07T03:44:18;7.20;93.90
38788;DHT22;24536;45.488;12.238;2022-12-07T03:49:34;7.20;93.60
38788;DHT22;24536;45.488;12.238;2022-12-07T03:52:29;7.10;93.20
38788;DHT22;24536;45.488;12.238;2022-12-07T03:55:12;7.10;93.40
38788;DHT22;24536;45.488;12.238;2022-12-07T03:57:41;7.00;93.20
38788;DHT22;24536;45.488;12.238;2022-12-07T04:00:09;7.00;93.30
38788;DHT22;24536;45.488;12.238;2022-12-07T04:02:35;6.90;93.30
38788;DHT22;24536;45.488;12.238;2022-12-07T04:05:02;6.90;93.50
38788;DHT22;24536;45.488;12.238;2022-12-07T04:07:28;6.90;93.20
38788;DHT22;24536;45.488;12.238;2022-12-07T04:09:53;6.90;93.20
38788;DHT22;24536;45.488;12.238;2022-12-07T04:12:21;6.90;93.30
38788;DHT22;24536;45.488;12.238;2022-12-07T04:14:46;6.90;93.00
38788;DHT22;24536;45.488;12.238;2022-12-07T04:17:12;6.80;93.00
38788;DHT22;24536;45.488;12.238;2022-12-07T04:19:38;6.80;93.10
38788;DHT22;24536;45.488;12.238;2022-12-07T04:22:05;6.70;92.90
38788;DHT22;24536;45.488;12.238;2022-12-07T04:24:32;6.80;93.10
38788;DHT22;24536;45.488;12.238;2022-12-07T04:26:58;6.80;93.00
38788;DHT22;24536;45.488;12.238;2022-12-07T04:29:24;6.80;93.00
38788;DHT22;24536;45.488;12.238;2022-12-07T04:31:50;6.70;92.90
38788;DHT22;24536;45.488;12.238;2022-12-07T04:34:17;6.70;92.70
38788;DHT22;24536;45.488;12.238;2022-12-07T04:36:44;6.50;92.70
38788;DHT22;24536;45.488;12.238;2022-12-07T04:39:22;6.50;92.90
38788;DHT22;24536;45.488;12.238;2022-12-07T04:41:48;6.50;93.00
38788;DHT22;24536;45.488;12.238;2022-12-07T04:44:15;6.50;93.00
38788;DHT22;24536;45.488;12.238;2022-12-07T04:46:41;6.50;93.00
38788;DHT22;24536;45.488;12.238;2022-12-07T04:49:07;6.60;92.90
38788;DHT22;24536;45.488;12.238;2022-12-07T04:51:33;6.60;92.70
38788;DHT22;24536;45.488;12.238;2022-12-07T04:53:58;6.60;92.80
38788;DHT22;24536;45.488;12.238;2022-12-07T04:56:25;6.60;92.80
38788;DHT22;24536;45.488;12.238;2022-12-07T04:58:52;6.60;92.70
38788;DHT22;24536;45.488;12.238;2022-12-07T05:01:19;6.60;92.70
38788;DHT22;24536;45.488;12.238;2022-12-07T05:03:45;6.60;92.70
38788;DHT22;24536;45.488;12.238;2022-12-07T05:06:11;6.60;92.60
38788;DHT22;24536;45.488;12.238;2022-12-07T05:08:37;6.60;92.60
38788;DHT22;24536;45.488;12.238;2022-12-07T05:11:05;6.60;92.70
38788;DHT22;24536;45.488;12.238;2022-12-07T05:13:31;6.60;92.40
38788;DHT22;24536;45.488;12.238;2022-12-07T05:15:57;6.60;92.40
38788;DHT22;24536;45.488;12.238;2022-12-07T05:18:23;6.60;92.50
38788;DHT22;24536;45.488;12.238;2022-12-07T05:20:49;6.50;92.50
38788;DHT22;24536;45.488;12.238;2022-12-07T05:23:16;6.60;92.50
38788;DHT22;24536;45.488;12.238;2022-12-07T05:25:42;6.60;92.40
38788;DHT22;24536;45.488;12.238;2022-12-07T05:28:08;6.60;92.50
38788;DHT22;24536;45.488;12.238;2022-12-07T05:30:34;6.60;92.40
38788;DHT22;24536;45.488;12.238;2022-12-07T05:32:59;6.50;92.30
38788;DHT22;24536;45.488;12.238;2022-12-07T05:35:25;6.50;92.40
38788;DHT22;24536;45.488;12.238;2022-12-07T05:37:51;6.60;92.40
38788;DHT22;24536;45.488;12.238;2022-12-07T05:40:17;6.60;92.40
38788;DHT22;24536;45.488;12.238;2022-12-07T05:42:44;6.70;92.50
38788;DHT22;24536;45.488;12.238;2022-12-07T05:45:10;6.70;92.30
38788;DHT22;24536;45.488;12.238;2022-12-07T05:47:36;6.70;92.10
38788;DHT22;24536;45.488;12.238;2022-12-07T05:50:03;6.60;91.70
38788;DHT22;24536;45.488;12.238;2022-12-07T05:52:28;6.50;91.80
38788;DHT22;24536;45.488;12.238;2022-12-07T05:54:54;6.50;92.00
38788;DHT22;24536;45.488;12.238;2022-12-07T05:57:20;6.40;92.00
38788;DHT22;24536;45.488;12.238;2022-12-07T05:59:45;6.30;92.00
38788;DHT22;24536;45.488;12.238;2022-12-07T06:02:13;6.30;92.20
38788;DHT22;24536;45.488;12.238;2022-12-07T06:04:41;6.40;92.40
38788;DHT22;24536;45.488;12.238;2022-12-07T06:07:08;6.40;92.40
38788;DHT22;24536;45.488;12.238;2022-12-07T06:12:00;6.40;92.10
38788;DHT22;24536;45.488;12.238;2022-12-07T06:14:45;6.40;92.30
38788;DHT22;24536;45.488;12.238;2022-12-07T06:17:11;6.40;92.10
38788;DHT22;24536;45.488;12.238;2022-12-07T06:19:38;6.40;91.90
38788;DHT22;24536;45.488;12.238;2022-12-07T06:22:04;6.40;92.00
38788;DHT22;24536;45.488;12.238;2022-12-07T06:24:31;6.40;92.00
38788;DHT22;24536;45.488;12.238;2022-12-07T06:26:57;6.30;91.90
38788;DHT22;24536;45.488;12.238;2022-12-07T06:29:23;6.20;92.30
38788;DHT22;24536;45.488;12.238;2022-12-07T06:31:49;6.20;92.00
38788;DHT22;24536;45.488;12.238;2022-12-07T06:34:18;6.10;92.20
38788;DHT22;24536;45.488;12.238;2022-12-07T06:36:45;6.20;92.30
38788;DHT22;24536;45.488;12.238;2022-12-07T06:39:11;6.20;92.40
38788;DHT22;24536;45.488;12.238;2022-12-07T06:41:37;6.30;92.30
38788;DHT22;24536;45.488;12.238;2022-12-07T06:44:07;6.40;92.30
38788;DHT22;24536;45.488;12.238;2022-12-07T06:46:33;6.40;92.30
38788;DHT22;24536;45.488;12.238;2022-12-07T06:49:00;6.50;92.00
38788;DHT22;24536;45.488;12.238;2022-12-07T06:51:26;6.50;92.10
38788;DHT22;24536;45.488;12.238;2022-12-07T06:53:52;6.50;91.90
38788;DHT22;24536;45.488;12.238;2022-12-07T06:56:19;6.50;91.80
38788;DHT22;24536;45.488;12.238;2022-12-07T06:58:44;6.50;91.90
38788;DHT22;24536;45.488;12.238;2022-12-07T07:01:12;6.50;91.80
38788;DHT22;24536;45.488;12.238;2022-12-07T07:03:38;6.50;91.80
38788;DHT22;24536;45.488;12.238;2022-12-07T07:06:05;6.50;91.70
38788;DHT22;24536;45.488;12.238;2022-12-07T07:08:31;6.40;91.70
38788;DHT22;24536;45.488;12.238;2022-12-07T07:10:57;6.40;91.70
38788;DHT22;24536;45.488;12.238;2022-12-07T07:13:22;6.50;91.90
38788;DHT22;24536;45.488;12.238;2022-12-07T07:15:48;6.50;91.90
38788;DHT22;24536;45.488;12.238;2022-12-07T07:18:14;6.50;92.00
38788;DHT22;24536;45.488;12.238;2022-12-07T07:20:40;6.40;92.00
38788;DHT22;24536;45.488;12.238;2022-12-07T07:23:06;6.50;92.10
38788;DHT22;24536;45.488;12.238;2022-12-07T07:25:32;6.40;91.80
38788;DHT22;24536;45.488;12.238;2022-12-07T07:27:58;6.40;92.10
38788;DHT22;24536;45.488;12.238;2022-12-07T07:30:24;6.30;92.20
38788;DHT22;24536;45.488;12.238;2022-12-07T07:32:50;6.40;92.40
38788;DHT22;24536;45.488;12.238;2022-12-07T07:35:15;6.40;92.40
38788;DHT22;24536;45.488;12.238;2022-12-07T07:37:41;6.50;92.40
38788;DHT22;24536;45.488;12.238;2022-12-07T07:40:08;6.60;92.40
38788;DHT22;24536;45.488;12.238;2022-12-07T07:42:34;6.60;92.40
38788;DHT22;24536;45.488;12.238;2022-12-07T07:45:00;6.60;92.40
38788;DHT22;24536;45.488;12.238;2022-12-07T07:47:26;6.60;92.40
38788;DHT22;24536;45.488;12.238;2022-12-07T07:49:51;6.70;92.50
38788;DHT22;24536;45.488;12.238;2022-12-07T07:52:17;6.70;92.30
38788;DHT22;24536;45.488;12.238;2022-12-07T07:54:43;6.70;92.30
38788;DHT22;24536;45.488;12.238;2022-12-07T07:57:12;6.80;93.00
38788;DHT22;24536;45.488;12.238;2022-12-07T07:59:37;6.80;92.30
38788;DHT22;24536;45.488;12.238;2022-12-07T08:02:03;6.90;92.40
38788;DHT22;24536;45.488;12.238;2022-12-07T08:04:29;6.90;92.20
38788;DHT22;24536;45.488;12.238;2022-12-07T08:06:56;6.90;92.10
38788;DHT22;24536;45.488;12.238;2022-12-07T08:09:22;6.90;92.10
38788;DHT22;24536;45.488;12.238;2022-12-07T08:11:48;7.00;91.90
38788;DHT22;24536;45.488;12.238;2022-12-07T08:14:14;7.00;91.80
38788;DHT22;24536;45.488;12.238;2022-12-07T08:16:40;7.10;91.90
38788;DHT22;24536;45.488;12.238;2022-12-07T08:19:05;7.10;91.90
38788;DHT22;24536;45.488;12.238;2022-12-07T08:21:31;7.20;91.90
38788;DHT22;24536;45.488;12.238;2022-12-07T08:23:57;7.20;91.90
38788;DHT22;24536;45.488;12.238;2022-12-07T08:26:23;7.30;91.80
38788;DHT22;24536;45.488;12.238;2022-12-07T08:28:49;7.40;91.90
38788;DHT22;24536;45.488;12.238;2022-12-07T08:31:17;7.50;91.30
38788;DHT22;24536;45.488;12.238;2022-12-07T08:33:45;7.50;91.50
38788;DHT22;24536;45.488;12.238;2022-12-07T08:36:12;7.60;91.50
38788;DHT22;24536;45.488;12.238;2022-12-07T08:38:39;7.70;91.30
38788;DHT22;24536;45.488;12.238;2022-12-07T08:41:06;7.80;91.50
38788;DHT22;24536;45.488;12.238;2022-12-07T08:43:33;7.90;91.30
38788;DHT22;24536;45.488;12.238;2022-12-07T08:46:18;7.90;91.30
38788;DHT22;24536;45.488;12.238;2022-12-07T08:48:50;8.00;91.30
38788;DHT22;24536;45.488;12.238;2022-12-07T08:51:17;8.10;91.30
38788;DHT22;24536;45.488;12.238;2022-12-07T08:53:43;8.20;91.20
38788;DHT22;24536;45.488;12.238;2022-12-07T08:56:09;8.30;91.00
38788;DHT22;24536;45.488;12.238;2022-12-07T08:58:35;8.30;90.70
38788;DHT22;24536;45.488;12.238;2022-12-07T09:01:02;8.30;90.70
38788;DHT22;24536;45.488;12.238;2022-12-07T09:03:28;8.40;90.70
38788;DHT22;24536;45.488;12.238;2022-12-07T09:05:55;8.40;90.70
38788;DHT22;24536;45.488;12.238;2022-12-07T09:08:22;8.50;90.60
38788;DHT22;24536;45.488;12.238;2022-12-07T09:10:48;8.60;90.20
38788;DHT22;24536;45.488;12.238;2022-12-07T09:13:14;8.50;90.20
38788;DHT22;24536;45.488;12.238;2022-12-07T09:15:40;8.60;90.40
38788;DHT22;24536;45.488;12.238;2022-12-07T09:18:05;8.60;90.40
38788;DHT22;24536;45.488;12.238;2022-12-07T09:20:32;8.70;90.30
38788;DHT22;24536;45.488;12.238;2022-12-07T09:22:58;8.80;90.30
38788;DHT22;24536;45.488;12.238;2022-12-07T09:25:24;8.80;90.40
38788;DHT22;24536;45.488;12.238;2022-12-07T09:27:55;8.90;90.10
38788;DHT22;24536;45.488;12.238;2022-12-07T09:30:22;9.00;90.30
38788;DHT22;24536;45.488;12.238;2022-12-07T09:32:47;9.00;88.90
38788;DHT22;24536;45.488;12.238;2022-12-07T09:35:13;9.10;89.10
38788;DHT22;24536;45.488;12.238;2022-12-07T09:37:39;9.10;89.50
38788;DHT22;24536;45.488;12.238;2022-12-07T09:40:05;9.10;88.20
38788;DHT22;24536;45.488;12.238;2022-12-07T09:42:36;9.20;88.70
38788;DHT22;24536;45.488;12.238;2022-12-07T09:45:06;9.20;88.00
38788;DHT22;24536;45.488;12.238;2022-12-07T09:47:33;9.10;87.40
38788;DHT22;24536;45.488;12.238;2022-12-07T09:50:11;9.20;87.90
38788;DHT22;24536;45.488;12.238;2022-12-07T09:52:37;9.20;88.90
38788;DHT22;24536;45.488;12.238;2022-12-07T09:55:07;9.40;88.70
38788;DHT22;24536;45.488;12.238;2022-12-07T09:57:34;9.50;89.00
38788;DHT22;24536;45.488;12.238;2022-12-07T10:00:06;9.60;89.50
38788;DHT22;24536;45.488;12.238;2022-12-07T10:02:42;9.70;88.00
38788;DHT22;24536;45.488;12.238;2022-12-07T10:05:16;9.80;85.00
38788;DHT22;24536;45.488;12.238;2022-12-07T10:07:44;9.80;86.10
38788;DHT22;24536;45.488;12.238;2022-12-07T10:10:31;9.90;87.30
38788;DHT22;24536;45.488;12.238;2022-12-07T10:15:22;9.90;87.20
38788;DHT22;24536;45.488;12.238;2022-12-07T10:17:52;10.00;87.90
38788;DHT22;24536;45.488;12.238;2022-12-07T10:20:26;10.20;88.00
38788;DHT22;24536;45.488;12.238;2022-12-07T10:23:12;10.30;86.10
38788;DHT22;24536;45.488;12.238;2022-12-07T10:30:54;10.70;83.90
38788;DHT22;24536;45.488;12.238;2022-12-07T10:35:55;11.20;83.90
38788;DHT22;24536;45.488;12.238;2022-12-07T10:38:20;11.30;81.70
38788;DHT22;24536;45.488;12.238;2022-12-07T10:40:46;11.50;82.50
38788;DHT22;24536;45.488;12.238;2022-12-07T10:50:52;11.60;80.00
38788;DHT22;24536;45.488;12.238;2022-12-07T10:58:59;12.60;81.50
38788;DHT22;24536;45.488;12.238;2022-12-07T11:01:47;12.90;81.30
38788;DHT22;24536;45.488;12.238;2022-12-07T11:07:20;13.50;80.10
38788;DHT22;24536;45.488;12.238;2022-12-07T11:18:01;14.00;72.30
38788;DHT22;24536;45.488;12.238;2022-12-07T11:23:22;14.20;76.70
38788;DHT22;24536;45.488;12.238;2022-12-07T11:34:46;14.60;71.90
38788;DHT22;24536;45.488;12.238;2022-12-07T11:37:19;15.00;75.30
38788;DHT22;24536;45.488;12.238;2022-12-07T11:39:55;15.90;70.10
38788;DHT22;24536;45.488;12.238;2022-12-07T11:42:30;16.70;66.90
38788;DHT22;24536;45.488;12.238;2022-12-07T11:45:21;17.50;69.30
38788;DHT22;24536;45.488;12.238;2022-12-07T14:17:54;13.80;71.40
38788;DHT22;24536;45.488;12.238;2022-12-07T14:20:40;13.80;71.50
38788;DHT22;24536;45.488;12.238;2022-12-07T14:23:24;13.80;72.00
38788;DHT22;24536;45.488;12.238;2022-12-07T14:25:52;13.90;72.40
38788;DHT22;24536;45.488;12.238;2022-12-07T14:28:38;13.80;72.80
38788;DHT22;24536;45.488;12.238;2022-12-07T14:31:22;13.90;73.00
38788;DHT22;24536;45.488;12.238;2022-12-07T14:33:49;13.80;71.20
38788;DHT22;24536;45.488;12.238;2022-12-07T14:36:15;13.70;72.10
38788;DHT22;24536;45.488;12.238;2022-12-07T14:38:41;13.70;72.70
38788;DHT22;24536;45.488;12.238;2022-12-07T14:41:13;13.70;73.20
38788;DHT22;24536;45.488;12.238;2022-12-07T14:43:59;13.70;73.50
38788;DHT22;24536;45.488;12.238;2022-12-07T14:46:25;13.70;73.90
38788;DHT22;24536;45.488;12.238;2022-12-07T14:48:50;13.70;74.30
38788;DHT22;24536;45.488;12.238;2022-12-07T14:51:16;13.70;74.20
38788;DHT22;24536;45.488;12.238;2022-12-07T14:53:48;13.70;74.00
38788;DHT22;24536;45.488;12.238;2022-12-07T14:56:39;13.70;74.40
38788;DHT22;24536;45.488;12.238;2022-12-07T14:59:05;13.70;74.60
38788;DHT22;24536;45.488;12.238;2022-12-07T15:01:31;13.70;74.50
38788;DHT22;24536;45.488;12.238;2022-12-07T15:03:56;13.50;73.80
38788;DHT22;24536;45.488;12.238;2022-12-07T15:06:23;13.50;74.30
38788;DHT22;24536;45.488;12.238;2022-12-07T15:08:48;13.50;74.90
38788;DHT22;24536;45.488;12.238;2022-12-07T15:11:16;13.50;75.10
38788;DHT22;24536;45.488;12.238;2022-12-07T15:13:43;13.50;75.60
38788;DHT22;24536;45.488;12.238;2022-12-07T15:16:27;13.50;76.00
38788;DHT22;24536;45.488;12.238;2022-12-07T15:18:53;13.50;76.40
38788;DHT22;24536;45.488;12.238;2022-12-07T15:21:19;13.40;76.60
38788;DHT22;24536;45.488;12.238;2022-12-07T15:23:46;13.30;77.10
38788;DHT22;24536;45.488;12.238;2022-12-07T15:26:13;13.20;77.50
38788;DHT22;24536;45.488;12.238;2022-12-07T15:28:40;13.20;77.90
38788;DHT22;24536;45.488;12.238;2022-12-07T15:31:13;13.10;78.20
38788;DHT22;24536;45.488;12.238;2022-12-07T15:33:39;13.00;78.60
38788;DHT22;24536;45.488;12.238;2022-12-07T15:36:05;13.00;79.00
38788;DHT22;24536;45.488;12.238;2022-12-07T15:38:31;12.90;79.30
38788;DHT22;24536;45.488;12.238;2022-12-07T15:40:57;12.90;79.60
38788;DHT22;24536;45.488;12.238;2022-12-07T15:43:23;12.80;79.80
38788;DHT22;24536;45.488;12.238;2022-12-07T15:46:07;12.80;79.40
38788;DHT22;24536;45.488;12.238;2022-12-07T15:48:33;12.70;80.10
38788;DHT22;24536;45.488;12.238;2022-12-07T15:51:06;12.60;80.40
38788;DHT22;24536;45.488;12.238;2022-12-07T15:53:33;12.60;80.70
38788;DHT22;24536;45.488;12.238;2022-12-07T15:55:59;12.60;80.90
38788;DHT22;24536;45.488;12.238;2022-12-07T15:58:25;12.50;81.10
38788;DHT22;24536;45.488;12.238;2022-12-07T16:00:51;12.50;81.40
38788;DHT22;24536;45.488;12.238;2022-12-07T16:03:17;12.40;81.50
38788;DHT22;24536;45.488;12.238;2022-12-07T16:05:49;12.40;81.80
38788;DHT22;24536;45.488;12.238;2022-12-07T16:08:15;12.30;82.10
38788;DHT22;24536;45.488;12.238;2022-12-07T16:10:41;12.30;82.40
38788;DHT22;24536;45.488;12.238;2022-12-07T16:13:09;12.20;82.40
38788;DHT22;24536;45.488;12.238;2022-12-07T16:15:39;12.20;82.70
38788;DHT22;24536;45.488;12.238;2022-12-07T16:18:04;12.20;82.90
38788;DHT22;24536;45.488;12.238;2022-12-07T16:20:30;12.10;83.00
38788;DHT22;24536;45.488;12.238;2022-12-07T16:22:56;12.10;83.10
38788;DHT22;24536;45.488;12.238;2022-12-07T16:25:21;12.00;83.20
38788;DHT22;24536;45.488;12.238;2022-12-07T16:27:47;12.00;83.30
38788;DHT22;24536;45.488;12.238;2022-12-07T16:30:14;11.90;83.40
38788;DHT22;24536;45.488;12.238;2022-12-07T16:32:41;11.90;83.70
38788;DHT22;24536;45.488;12.238;2022-12-07T16:35:08;11.90;83.90
38788;DHT22;24536;45.488;12.238;2022-12-07T16:37:33;11.90;84.20
38788;DHT22;24536;45.488;12.238;2022-12-07T16:39:59;11.90;84.30
38788;DHT22;24536;45.488;12.238;2022-12-07T16:42:25;11.80;84.40
38788;DHT22;24536;45.488;12.238;2022-12-07T16:44:51;11.80;84.50
38788;DHT22;24536;45.488;12.238;2022-12-07T16:47:17;11.80;84.70
38788;DHT22;24536;45.488;12.238;2022-12-07T16:49:43;11.80;84.70
38788;DHT22;24536;45.488;12.238;2022-12-07T16:52:09;11.70;84.70
38788;DHT22;24536;45.488;12.238;2022-12-07T16:54:35;11.70;85.00
38788;DHT22;24536;45.488;12.238;2022-12-07T16:57:01;11.70;85.30
38788;DHT22;24536;45.488;12.238;2022-12-07T16:59:27;11.70;85.50
38788;DHT22;24536;45.488;12.238;2022-12-07T17:01:52;11.60;86.10
38788;DHT22;24536;45.488;12.238;2022-12-07T17:04:18;11.60;85.60
38788;DHT22;24536;45.488;12.238;2022-12-07T17:06:44;11.60;85.50
38788;DHT22;24536;45.488;12.238;2022-12-07T17:09:09;11.60;85.60
38788;DHT22;24536;45.488;12.238;2022-12-07T17:11:37;11.50;85.60
38788;DHT22;24536;45.488;12.238;2022-12-07T17:14:03;11.50;85.70
38788;DHT22;24536;45.488;12.238;2022-12-07T17:16:47;11.40;85.60
38788;DHT22;24536;45.488;12.238;2022-12-07T17:19:15;11.40;85.60
38788;DHT22;24536;45.488;12.238;2022-12-07T17:21:41;11.40;86.00
38788;DHT22;24536;45.488;12.238;2022-12-07T17:24:09;11.50;86.10
38788;DHT22;24536;45.488;12.238;2022-12-07T17:26:36;11.40;86.10
38788;DHT22;24536;45.488;12.238;2022-12-07T17:29:04;11.40;86.20
38788;DHT22;24536;45.488;12.238;2022-12-07T17:31:29;11.40;86.40
38788;DHT22;24536;45.488;12.238;2022-12-07T17:33:55;11.40;86.30
38788;DHT22;24536;45.488;12.238;2022-12-07T17:36:25;11.40;86.40
38788;DHT22;24536;45.488;12.238;2022-12-07T17:38:51;11.30;86.50
38788;DHT22;24536;45.488;12.238;2022-12-07T17:41:26;11.30;86.70
38788;DHT22;24536;45.488;12.238;2022-12-07T17:44:16;11.30;86.90
38788;DHT22;24536;45.488;12.238;2022-12-07T17:46:42;11.30;86.80
38788;DHT22;24536;45.488;12.238;2022-12-07T17:49:08;11.10;86.20
38788;DHT22;24536;45.488;12.238;2022-12-07T17:51:34;11.20;86.10
38788;DHT22;24536;45.488;12.238;2022-12-07T17:54:19;11.10;86.30
38788;DHT22;24536;45.488;12.238;2022-12-07T17:56:45;11.10;86.30
38788;DHT22;24536;45.488;12.238;2022-12-07T17:59:11;11.10;86.30
38788;DHT22;24536;45.488;12.238;2022-12-07T18:01:37;11.00;86.10
38788;DHT22;24536;45.488;12.238;2022-12-07T18:04:03;11.00;86.40
38788;DHT22;24536;45.488;12.238;2022-12-07T18:06:29;11.00;86.30
38788;DHT22;24536;45.488;12.238;2022-12-07T18:08:55;10.90;86.40
38788;DHT22;24536;45.488;12.238;2022-12-07T18:11:21;10.90;86.50
38788;DHT22;24536;45.488;12.238;2022-12-07T18:27:10;11.20;85.50
38788;DHT22;24536;45.488;12.238;2022-12-07T18:29:36;11.20;86.10
38788;DHT22;24536;45.488;12.238;2022-12-07T18:32:02;11.10;86.00
38788;DHT22;24536;45.488;12.238;2022-12-07T18:34:29;11.10;85.80
38788;DHT22;24536;45.488;12.238;2022-12-07T18:36:55;11.00;86.00
38788;DHT22;24536;45.488;12.238;2022-12-07T18:39:21;10.90;86.10
38788;DHT22;24536;45.488;12.238;2022-12-07T18:41:46;10.80;86.10
38788;DHT22;24536;45.488;12.238;2022-12-07T18:44:13;10.80;86.30
38788;DHT22;24536;45.488;12.238;2022-12-07T18:46:39;10.80;86.40
38788;DHT22;24536;45.488;12.238;2022-12-07T18:49:10;10.70;86.40
38788;DHT22;24536;45.488;12.238;2022-12-07T18:51:36;10.70;86.70
38788;DHT22;24536;45.488;12.238;2022-12-07T18:54:02;10.70;86.80
38788;DHT22;24536;45.488;12.238;2022-12-07T18:56:29;10.60;86.90
38788;DHT22;24536;45.488;12.238;2022-12-07T18:59:03;10.60;87.00
38788;DHT22;24536;45.488;12.238;2022-12-07T19:01:51;10.60;87.20
38788;DHT22;24536;45.488;12.238;2022-12-07T19:04:17;10.50;87.20
38788;DHT22;24536;45.488;12.238;2022-12-07T19:06:45;10.50;87.20
38788;DHT22;24536;45.488;12.238;2022-12-07T19:09:11;10.40;87.40
38788;DHT22;24536;45.488;12.238;2022-12-07T19:11:38;10.40;87.70
38788;DHT22;24536;45.488;12.238;2022-12-07T19:14:20;10.40;87.80
38788;DHT22;24536;45.488;12.238;2022-12-07T19:16:47;10.40;87.90
38788;DHT22;24536;45.488;12.238;2022-12-07T19:19:17;10.40;87.90
38788;DHT22;24536;45.488;12.238;2022-12-07T19:21:43;10.40;87.90
38788;DHT22;24536;45.488;12.238;2022-12-07T19:24:09;10.40;88.00
38788;DHT22;24536;45.488;12.238;2022-12-07T19:26:35;10.40;88.00
38788;DHT22;24536;45.488;12.238;2022-12-07T19:29:00;10.30;87.90
38788;DHT22;24536;45.488;12.238;2022-12-07T19:31:26;10.30;87.70
38788;DHT22;24536;45.488;12.238;2022-12-07T19:33:52;10.20;87.90
38788;DHT22;24536;45.488;12.238;2022-12-07T19:36:18;10.20;88.10
38788;DHT22;24536;45.488;12.238;2022-12-07T19:38:43;10.10;88.20
38788;DHT22;24536;45.488;12.238;2022-12-07T19:41:12;10.10;88.30